<?xml version="1.0" encoding="UTF-8" standalone="no" ?>
<gpx xmlns="http://www.topografix.com/GPX/1/1" xmlns:xsi="http://www.w3.org/2001/XMLSchema-instance" xsi:schemaLocation="http://www.topografix.com/GPX/1/1 http://www.topografix.com/GPX/1/1/gpx.xsd" version="1.1" creator="VisuGPX - https://www.visugpx.com">
  <metadata>
    <name>LUNDI MOYEN PARCOURS LAC ST POINT</name>
  </metadata>
  <wpt lat="46.81076" lon="6.32214">
    <ele>880</ele>
    <name><![CDATA[Parking vers source bleue]]></name>
  </wpt>
  <wpt lat="46.80924" lon="6.32418">
    <ele>899</ele>
    <name><![CDATA[Source Bleue]]></name>
  </wpt>
  <wpt lat="46.79804" lon="6.32149">
    <ele>1022</ele>
    <name><![CDATA[Les granges de Malbuisson]]></name>
  </wpt>
  <wpt lat="46.78864" lon="6.33107">
    <ele>1086</ele>
    <name><![CDATA[Le Fort ST Antoine]]></name>
  </wpt>
  <wpt lat="46.79937" lon="6.30495">
    <ele>884</ele>
    <name><![CDATA[Grande rue Malbuisson]]></name>
  </wpt>
  <wpt lat="46.80831" lon="6.31057">
    <ele>852</ele>
    <name><![CDATA[Parc de loisirs]]></name>
  </wpt>
  <wpt lat="46.81083" lon="6.32197">
    <ele>879</ele>
    <name><![CDATA[Parking vers source bleue]]></name>
  </wpt>
  <trk>
    <name><![CDATA[LUNDI MOYEN PARCOURS LAC ST POINT]]></name>
    <trkseg>
      <trkpt lat="46.81076" lon="6.32214">
        <ele>880</ele>
        <time>2021-12-22T20:48:00+01:00</time>
      </trkpt>
      <trkpt lat="46.81033" lon="6.32273">
        <ele>883</ele>
        <time>2021-12-22T20:48:05+01:00</time>
      </trkpt>
      <trkpt lat="46.81005" lon="6.32281">
        <ele>882</ele>
        <time>2021-12-22T20:48:10+01:00</time>
      </trkpt>
      <trkpt lat="46.80979" lon="6.32293">
        <ele>884</ele>
        <time>2021-12-22T20:48:15+01:00</time>
      </trkpt>
      <trkpt lat="46.80924" lon="6.32418">
        <ele>899</ele>
        <time>2021-12-22T20:48:20+01:00</time>
      </trkpt>
      <trkpt lat="46.80977" lon="6.3241">
        <ele>903</ele>
        <time>2021-12-22T20:48:25+01:00</time>
      </trkpt>
      <trkpt lat="46.80955" lon="6.32455">
        <ele>910</ele>
        <time>2021-12-22T20:48:30+01:00</time>
      </trkpt>
      <trkpt lat="46.80958" lon="6.32489">
        <ele>921</ele>
        <time>2021-12-22T20:48:35+01:00</time>
      </trkpt>
      <trkpt lat="46.8096" lon="6.32508">
        <ele>927</ele>
        <time>2021-12-22T20:48:40+01:00</time>
      </trkpt>
      <trkpt lat="46.80977" lon="6.32526">
        <ele>930</ele>
        <time>2021-12-22T20:48:45+01:00</time>
      </trkpt>
      <trkpt lat="46.81015" lon="6.3256">
        <ele>935</ele>
        <time>2021-12-22T20:48:50+01:00</time>
      </trkpt>
      <trkpt lat="46.81041" lon="6.32594">
        <ele>938</ele>
        <time>2021-12-22T20:48:55+01:00</time>
      </trkpt>
      <trkpt lat="46.80962" lon="6.32593">
        <ele>951</ele>
        <time>2021-12-22T20:49:00+01:00</time>
      </trkpt>
      <trkpt lat="46.80903" lon="6.32609">
        <ele>966</ele>
        <time>2021-12-22T20:49:05+01:00</time>
      </trkpt>
      <trkpt lat="46.80869" lon="6.32593">
        <ele>967</ele>
        <time>2021-12-22T20:49:10+01:00</time>
      </trkpt>
      <trkpt lat="46.80774" lon="6.32513">
        <ele>988</ele>
        <time>2021-12-22T20:49:15+01:00</time>
      </trkpt>
      <trkpt lat="46.80744" lon="6.32466">
        <ele>988</ele>
        <time>2021-12-22T20:49:20+01:00</time>
      </trkpt>
      <trkpt lat="46.80715" lon="6.32433">
        <ele>990</ele>
        <time>2021-12-22T20:49:25+01:00</time>
      </trkpt>
      <trkpt lat="46.80676" lon="6.32372">
        <ele>989</ele>
        <time>2021-12-22T20:49:30+01:00</time>
      </trkpt>
      <trkpt lat="46.80571" lon="6.32242">
        <ele>985</ele>
        <time>2021-12-22T20:49:35+01:00</time>
      </trkpt>
      <trkpt lat="46.80515" lon="6.32174">
        <ele>978</ele>
        <time>2021-12-22T20:49:40+01:00</time>
      </trkpt>
      <trkpt lat="46.80463" lon="6.32143">
        <ele>974</ele>
        <time>2021-12-22T20:49:45+01:00</time>
      </trkpt>
      <trkpt lat="46.80415" lon="6.32113">
        <ele>966</ele>
        <time>2021-12-22T20:49:50+01:00</time>
      </trkpt>
      <trkpt lat="46.80369" lon="6.32085">
        <ele>957</ele>
        <time>2021-12-22T20:49:55+01:00</time>
      </trkpt>
      <trkpt lat="46.8033" lon="6.32041">
        <ele>953</ele>
        <time>2021-12-22T20:50:00+01:00</time>
      </trkpt>
      <trkpt lat="46.80325" lon="6.32026">
        <ele>953</ele>
        <time>2021-12-22T20:50:05+01:00</time>
      </trkpt>
      <trkpt lat="46.80289" lon="6.32035">
        <ele>960</ele>
        <time>2021-12-22T20:50:10+01:00</time>
      </trkpt>
      <trkpt lat="46.80257" lon="6.32041">
        <ele>964</ele>
        <time>2021-12-22T20:50:15+01:00</time>
      </trkpt>
      <trkpt lat="46.80227" lon="6.3204">
        <ele>967</ele>
        <time>2021-12-22T20:50:20+01:00</time>
      </trkpt>
      <trkpt lat="46.80147" lon="6.32071">
        <ele>973</ele>
        <time>2021-12-22T20:50:25+01:00</time>
      </trkpt>
      <trkpt lat="46.80117" lon="6.3206">
        <ele>980</ele>
        <time>2021-12-22T20:50:30+01:00</time>
      </trkpt>
      <trkpt lat="46.80059" lon="6.32012">
        <ele>999</ele>
        <time>2021-12-22T20:50:35+01:00</time>
      </trkpt>
      <trkpt lat="46.80035" lon="6.32008">
        <ele>1007</ele>
        <time>2021-12-22T20:50:40+01:00</time>
      </trkpt>
      <trkpt lat="46.79989" lon="6.32024">
        <ele>1012</ele>
        <time>2021-12-22T20:50:45+01:00</time>
      </trkpt>
      <trkpt lat="46.79922" lon="6.32016">
        <ele>1015</ele>
        <time>2021-12-22T20:50:50+01:00</time>
      </trkpt>
      <trkpt lat="46.79884" lon="6.32019">
        <ele>1016</ele>
        <time>2021-12-22T20:50:55+01:00</time>
      </trkpt>
      <trkpt lat="46.79853" lon="6.32038">
        <ele>1019</ele>
        <time>2021-12-22T20:51:00+01:00</time>
      </trkpt>
      <trkpt lat="46.79804" lon="6.32149">
        <ele>1022</ele>
        <time>2021-12-22T20:51:05+01:00</time>
      </trkpt>
      <trkpt lat="46.79776" lon="6.32206">
        <ele>1026</ele>
        <time>2021-12-22T20:51:10+01:00</time>
      </trkpt>
      <trkpt lat="46.79773" lon="6.32246">
        <ele>1027</ele>
        <time>2021-12-22T20:51:15+01:00</time>
      </trkpt>
      <trkpt lat="46.7979" lon="6.32355">
        <ele>1035</ele>
        <time>2021-12-22T20:51:20+01:00</time>
      </trkpt>
      <trkpt lat="46.79791" lon="6.32364">
        <ele>1035</ele>
        <time>2021-12-22T20:51:25+01:00</time>
      </trkpt>
      <trkpt lat="46.79759" lon="6.32352">
        <ele>1037</ele>
        <time>2021-12-22T20:51:30+01:00</time>
      </trkpt>
      <trkpt lat="46.79727" lon="6.32347">
        <ele>1040</ele>
        <time>2021-12-22T20:51:35+01:00</time>
      </trkpt>
      <trkpt lat="46.79666" lon="6.32384">
        <ele>1048</ele>
        <time>2021-12-22T20:51:40+01:00</time>
      </trkpt>
      <trkpt lat="46.79574" lon="6.32481">
        <ele>1050</ele>
        <time>2021-12-22T20:51:45+01:00</time>
      </trkpt>
      <trkpt lat="46.79545" lon="6.32533">
        <ele>1052</ele>
        <time>2021-12-22T20:51:50+01:00</time>
      </trkpt>
      <trkpt lat="46.79523" lon="6.32574">
        <ele>1052</ele>
        <time>2021-12-22T20:51:55+01:00</time>
      </trkpt>
      <trkpt lat="46.79451" lon="6.3276">
        <ele>1055</ele>
        <time>2021-12-22T20:52:00+01:00</time>
      </trkpt>
      <trkpt lat="46.79441" lon="6.32815">
        <ele>1055</ele>
        <time>2021-12-22T20:52:05+01:00</time>
      </trkpt>
      <trkpt lat="46.79432" lon="6.3287">
        <ele>1055</ele>
        <time>2021-12-22T20:52:10+01:00</time>
      </trkpt>
      <trkpt lat="46.79436" lon="6.33017">
        <ele>1062</ele>
        <time>2021-12-22T20:52:15+01:00</time>
      </trkpt>
      <trkpt lat="46.79442" lon="6.33081">
        <ele>1066</ele>
        <time>2021-12-22T20:52:20+01:00</time>
      </trkpt>
      <trkpt lat="46.7944" lon="6.33143">
        <ele>1069</ele>
        <time>2021-12-22T20:52:25+01:00</time>
      </trkpt>
      <trkpt lat="46.79444" lon="6.3323">
        <ele>1074</ele>
        <time>2021-12-22T20:52:30+01:00</time>
      </trkpt>
      <trkpt lat="46.79454" lon="6.33269">
        <ele>1074</ele>
        <time>2021-12-22T20:52:35+01:00</time>
      </trkpt>
      <trkpt lat="46.79441" lon="6.33313">
        <ele>1077</ele>
        <time>2021-12-22T20:52:40+01:00</time>
      </trkpt>
      <trkpt lat="46.794" lon="6.33366">
        <ele>1079</ele>
        <time>2021-12-22T20:52:45+01:00</time>
      </trkpt>
      <trkpt lat="46.79365" lon="6.33369">
        <ele>1081</ele>
        <time>2021-12-22T20:52:50+01:00</time>
      </trkpt>
      <trkpt lat="46.79321" lon="6.3339">
        <ele>1085</ele>
        <time>2021-12-22T20:52:55+01:00</time>
      </trkpt>
      <trkpt lat="46.79307" lon="6.33353">
        <ele>1086</ele>
        <time>2021-12-22T20:53:00+01:00</time>
      </trkpt>
      <trkpt lat="46.79286" lon="6.33332">
        <ele>1085</ele>
        <time>2021-12-22T20:53:05+01:00</time>
      </trkpt>
      <trkpt lat="46.79183" lon="6.33325">
        <ele>1081</ele>
        <time>2021-12-22T20:53:10+01:00</time>
      </trkpt>
      <trkpt lat="46.79162" lon="6.3339">
        <ele>1081</ele>
        <time>2021-12-22T20:53:15+01:00</time>
      </trkpt>
      <trkpt lat="46.79139" lon="6.33402">
        <ele>1079</ele>
        <time>2021-12-22T20:53:20+01:00</time>
      </trkpt>
      <trkpt lat="46.79098" lon="6.33357">
        <ele>1077</ele>
        <time>2021-12-22T20:53:25+01:00</time>
      </trkpt>
      <trkpt lat="46.79093" lon="6.33325">
        <ele>1076</ele>
        <time>2021-12-22T20:53:30+01:00</time>
      </trkpt>
      <trkpt lat="46.79087" lon="6.33288">
        <ele>1076</ele>
        <time>2021-12-22T20:53:35+01:00</time>
      </trkpt>
      <trkpt lat="46.79077" lon="6.33258">
        <ele>1075</ele>
        <time>2021-12-22T20:53:40+01:00</time>
      </trkpt>
      <trkpt lat="46.79054" lon="6.33213">
        <ele>1075</ele>
        <time>2021-12-22T20:53:45+01:00</time>
      </trkpt>
      <trkpt lat="46.78989" lon="6.33144">
        <ele>1075</ele>
        <time>2021-12-22T20:53:50+01:00</time>
      </trkpt>
      <trkpt lat="46.7896" lon="6.33101">
        <ele>1075</ele>
        <time>2021-12-22T20:53:55+01:00</time>
      </trkpt>
      <trkpt lat="46.78913" lon="6.33059">
        <ele>1078</ele>
        <time>2021-12-22T20:54:00+01:00</time>
      </trkpt>
      <trkpt lat="46.78881" lon="6.33002">
        <ele>1079</ele>
        <time>2021-12-22T20:54:05+01:00</time>
      </trkpt>
      <trkpt lat="46.78854" lon="6.32976">
        <ele>1082</ele>
        <time>2021-12-22T20:54:10+01:00</time>
      </trkpt>
      <trkpt lat="46.7882" lon="6.3292">
        <ele>1082</ele>
        <time>2021-12-22T20:54:15+01:00</time>
      </trkpt>
      <trkpt lat="46.78849" lon="6.33056">
        <ele>1087</ele>
        <time>2021-12-22T20:54:20+01:00</time>
      </trkpt>
      <trkpt lat="46.78864" lon="6.33107">
        <ele>1086</ele>
        <time>2021-12-22T20:54:25+01:00</time>
      </trkpt>
      <trkpt lat="46.7883" lon="6.32947">
        <ele>1083</ele>
        <time>2021-12-22T20:54:30+01:00</time>
      </trkpt>
      <trkpt lat="46.78802" lon="6.32883">
        <ele>1081</ele>
        <time>2021-12-22T20:54:35+01:00</time>
      </trkpt>
      <trkpt lat="46.78763" lon="6.32818">
        <ele>1080</ele>
        <time>2021-12-22T20:54:40+01:00</time>
      </trkpt>
      <trkpt lat="46.78759" lon="6.32777">
        <ele>1077</ele>
        <time>2021-12-22T20:54:45+01:00</time>
      </trkpt>
      <trkpt lat="46.78759" lon="6.32732">
        <ele>1076</ele>
        <time>2021-12-22T20:54:50+01:00</time>
      </trkpt>
      <trkpt lat="46.78788" lon="6.32685">
        <ele>1073</ele>
        <time>2021-12-22T20:54:55+01:00</time>
      </trkpt>
      <trkpt lat="46.7884" lon="6.32597">
        <ele>1069</ele>
        <time>2021-12-22T20:55:00+01:00</time>
      </trkpt>
      <trkpt lat="46.78866" lon="6.32539">
        <ele>1068</ele>
        <time>2021-12-22T20:55:05+01:00</time>
      </trkpt>
      <trkpt lat="46.78884" lon="6.32477">
        <ele>1066</ele>
        <time>2021-12-22T20:55:10+01:00</time>
      </trkpt>
      <trkpt lat="46.78888" lon="6.32367">
        <ele>1065</ele>
        <time>2021-12-22T20:55:15+01:00</time>
      </trkpt>
      <trkpt lat="46.78885" lon="6.32259">
        <ele>1065</ele>
        <time>2021-12-22T20:55:20+01:00</time>
      </trkpt>
      <trkpt lat="46.78884" lon="6.32068">
        <ele>1061</ele>
        <time>2021-12-22T20:55:25+01:00</time>
      </trkpt>
      <trkpt lat="46.78883" lon="6.3196">
        <ele>1058</ele>
        <time>2021-12-22T20:55:30+01:00</time>
      </trkpt>
      <trkpt lat="46.78891" lon="6.31897">
        <ele>1055</ele>
        <time>2021-12-22T20:55:35+01:00</time>
      </trkpt>
      <trkpt lat="46.78916" lon="6.31791">
        <ele>1051</ele>
        <time>2021-12-22T20:55:40+01:00</time>
      </trkpt>
      <trkpt lat="46.78942" lon="6.31718">
        <ele>1050</ele>
        <time>2021-12-22T20:55:45+01:00</time>
      </trkpt>
      <trkpt lat="46.78987" lon="6.31614">
        <ele>1043</ele>
        <time>2021-12-22T20:55:50+01:00</time>
      </trkpt>
      <trkpt lat="46.7901" lon="6.3155">
        <ele>1037</ele>
        <time>2021-12-22T20:55:55+01:00</time>
      </trkpt>
      <trkpt lat="46.7896" lon="6.31557">
        <ele>1040</ele>
        <time>2021-12-22T20:56:00+01:00</time>
      </trkpt>
      <trkpt lat="46.78857" lon="6.31525">
        <ele>1035</ele>
        <time>2021-12-22T20:56:05+01:00</time>
      </trkpt>
      <trkpt lat="46.78753" lon="6.31463">
        <ele>1035</ele>
        <time>2021-12-22T20:56:10+01:00</time>
      </trkpt>
      <trkpt lat="46.78734" lon="6.31447">
        <ele>1035</ele>
        <time>2021-12-22T20:56:15+01:00</time>
      </trkpt>
      <trkpt lat="46.78732" lon="6.31352">
        <ele>1045</ele>
        <time>2021-12-22T20:56:20+01:00</time>
      </trkpt>
      <trkpt lat="46.78718" lon="6.3132">
        <ele>1048</ele>
        <time>2021-12-22T20:56:25+01:00</time>
      </trkpt>
      <trkpt lat="46.78671" lon="6.31292">
        <ele>1044</ele>
        <time>2021-12-22T20:56:30+01:00</time>
      </trkpt>
      <trkpt lat="46.78638" lon="6.31294">
        <ele>1040</ele>
        <time>2021-12-22T20:56:35+01:00</time>
      </trkpt>
      <trkpt lat="46.78555" lon="6.31289">
        <ele>1031</ele>
        <time>2021-12-22T20:56:40+01:00</time>
      </trkpt>
      <trkpt lat="46.78592" lon="6.31208">
        <ele>1044</ele>
        <time>2021-12-22T20:56:45+01:00</time>
      </trkpt>
      <trkpt lat="46.78628" lon="6.31085">
        <ele>1050</ele>
        <time>2021-12-22T20:56:50+01:00</time>
      </trkpt>
      <trkpt lat="46.787" lon="6.30984">
        <ele>1051</ele>
        <time>2021-12-22T20:56:55+01:00</time>
      </trkpt>
      <trkpt lat="46.78762" lon="6.30856">
        <ele>1050</ele>
        <time>2021-12-22T20:57:00+01:00</time>
      </trkpt>
      <trkpt lat="46.78776" lon="6.30822">
        <ele>1048</ele>
        <time>2021-12-22T20:57:05+01:00</time>
      </trkpt>
      <trkpt lat="46.78769" lon="6.3075">
        <ele>1044</ele>
        <time>2021-12-22T20:57:10+01:00</time>
      </trkpt>
      <trkpt lat="46.78774" lon="6.30727">
        <ele>1043</ele>
        <time>2021-12-22T20:57:15+01:00</time>
      </trkpt>
      <trkpt lat="46.78803" lon="6.30705">
        <ele>1043</ele>
        <time>2021-12-22T20:57:20+01:00</time>
      </trkpt>
      <trkpt lat="46.78844" lon="6.3067">
        <ele>1042</ele>
        <time>2021-12-22T20:57:25+01:00</time>
      </trkpt>
      <trkpt lat="46.78863" lon="6.30585">
        <ele>1040</ele>
        <time>2021-12-22T20:57:30+01:00</time>
      </trkpt>
      <trkpt lat="46.78854" lon="6.30495">
        <ele>1032</ele>
        <time>2021-12-22T20:57:35+01:00</time>
      </trkpt>
      <trkpt lat="46.78836" lon="6.30471">
        <ele>1029</ele>
        <time>2021-12-22T20:57:40+01:00</time>
      </trkpt>
      <trkpt lat="46.78799" lon="6.30452">
        <ele>1024</ele>
        <time>2021-12-22T20:57:45+01:00</time>
      </trkpt>
      <trkpt lat="46.78779" lon="6.30422">
        <ele>1020</ele>
        <time>2021-12-22T20:57:50+01:00</time>
      </trkpt>
      <trkpt lat="46.78779" lon="6.30349">
        <ele>1014</ele>
        <time>2021-12-22T20:57:55+01:00</time>
      </trkpt>
      <trkpt lat="46.78799" lon="6.30283">
        <ele>1009</ele>
        <time>2021-12-22T20:58:00+01:00</time>
      </trkpt>
      <trkpt lat="46.78834" lon="6.30238">
        <ele>1004</ele>
        <time>2021-12-22T20:58:05+01:00</time>
      </trkpt>
      <trkpt lat="46.78856" lon="6.30208">
        <ele>1001</ele>
        <time>2021-12-22T20:58:10+01:00</time>
      </trkpt>
      <trkpt lat="46.78891" lon="6.30182">
        <ele>1000</ele>
        <time>2021-12-22T20:58:15+01:00</time>
      </trkpt>
      <trkpt lat="46.78934" lon="6.30193">
        <ele>996</ele>
        <time>2021-12-22T20:58:20+01:00</time>
      </trkpt>
      <trkpt lat="46.78961" lon="6.30218">
        <ele>997</ele>
        <time>2021-12-22T20:58:25+01:00</time>
      </trkpt>
      <trkpt lat="46.78982" lon="6.30207">
        <ele>989</ele>
        <time>2021-12-22T20:58:30+01:00</time>
      </trkpt>
      <trkpt lat="46.78999" lon="6.30193">
        <ele>985</ele>
        <time>2021-12-22T20:58:35+01:00</time>
      </trkpt>
      <trkpt lat="46.7901" lon="6.30172">
        <ele>982</ele>
        <time>2021-12-22T20:58:40+01:00</time>
      </trkpt>
      <trkpt lat="46.79019" lon="6.30164">
        <ele>980</ele>
        <time>2021-12-22T20:58:45+01:00</time>
      </trkpt>
      <trkpt lat="46.79041" lon="6.30174">
        <ele>978</ele>
        <time>2021-12-22T20:58:50+01:00</time>
      </trkpt>
      <trkpt lat="46.79083" lon="6.30197">
        <ele>976</ele>
        <time>2021-12-22T20:58:55+01:00</time>
      </trkpt>
      <trkpt lat="46.79081" lon="6.30177">
        <ele>975</ele>
        <time>2021-12-22T20:59:00+01:00</time>
      </trkpt>
      <trkpt lat="46.79063" lon="6.30124">
        <ele>973</ele>
        <time>2021-12-22T20:59:05+01:00</time>
      </trkpt>
      <trkpt lat="46.79036" lon="6.30058">
        <ele>966</ele>
        <time>2021-12-22T20:59:10+01:00</time>
      </trkpt>
      <trkpt lat="46.79023" lon="6.30026">
        <ele>961</ele>
        <time>2021-12-22T20:59:15+01:00</time>
      </trkpt>
      <trkpt lat="46.7902" lon="6.29991">
        <ele>956</ele>
        <time>2021-12-22T20:59:20+01:00</time>
      </trkpt>
      <trkpt lat="46.79039" lon="6.2998">
        <ele>954</ele>
        <time>2021-12-22T20:59:25+01:00</time>
      </trkpt>
      <trkpt lat="46.79108" lon="6.3">
        <ele>950</ele>
        <time>2021-12-22T20:59:30+01:00</time>
      </trkpt>
      <trkpt lat="46.79137" lon="6.30022">
        <ele>943</ele>
        <time>2021-12-22T20:59:35+01:00</time>
      </trkpt>
      <trkpt lat="46.79161" lon="6.30054">
        <ele>940</ele>
        <time>2021-12-22T20:59:40+01:00</time>
      </trkpt>
      <trkpt lat="46.79193" lon="6.30094">
        <ele>935</ele>
        <time>2021-12-22T20:59:45+01:00</time>
      </trkpt>
      <trkpt lat="46.79315" lon="6.3018">
        <ele>923</ele>
        <time>2021-12-22T20:59:50+01:00</time>
      </trkpt>
      <trkpt lat="46.79434" lon="6.30242">
        <ele>907</ele>
        <time>2021-12-22T20:59:55+01:00</time>
      </trkpt>
      <trkpt lat="46.79502" lon="6.30292">
        <ele>899</ele>
        <time>2021-12-22T21:00:00+01:00</time>
      </trkpt>
      <trkpt lat="46.79498" lon="6.3031">
        <ele>902</ele>
        <time>2021-12-22T21:00:05+01:00</time>
      </trkpt>
      <trkpt lat="46.79511" lon="6.30347">
        <ele>905</ele>
        <time>2021-12-22T21:00:10+01:00</time>
      </trkpt>
      <trkpt lat="46.79524" lon="6.30376">
        <ele>907</ele>
        <time>2021-12-22T21:00:15+01:00</time>
      </trkpt>
      <trkpt lat="46.79549" lon="6.30432">
        <ele>912</ele>
        <time>2021-12-22T21:00:20+01:00</time>
      </trkpt>
      <trkpt lat="46.79625" lon="6.30599">
        <ele>931</ele>
        <time>2021-12-22T21:00:25+01:00</time>
      </trkpt>
      <trkpt lat="46.7967" lon="6.3068">
        <ele>938</ele>
        <time>2021-12-22T21:00:30+01:00</time>
      </trkpt>
      <trkpt lat="46.79695" lon="6.30768">
        <ele>950</ele>
        <time>2021-12-22T21:00:35+01:00</time>
      </trkpt>
      <trkpt lat="46.79751" lon="6.30888">
        <ele>961</ele>
        <time>2021-12-22T21:00:40+01:00</time>
      </trkpt>
      <trkpt lat="46.79776" lon="6.30947">
        <ele>968</ele>
        <time>2021-12-22T21:00:45+01:00</time>
      </trkpt>
      <trkpt lat="46.79821" lon="6.30994">
        <ele>973</ele>
        <time>2021-12-22T21:00:50+01:00</time>
      </trkpt>
      <trkpt lat="46.7984" lon="6.31028">
        <ele>977</ele>
        <time>2021-12-22T21:00:55+01:00</time>
      </trkpt>
      <trkpt lat="46.79879" lon="6.31051">
        <ele>972</ele>
        <time>2021-12-22T21:01:00+01:00</time>
      </trkpt>
      <trkpt lat="46.79873" lon="6.31018">
        <ele>967</ele>
        <time>2021-12-22T21:01:05+01:00</time>
      </trkpt>
      <trkpt lat="46.79813" lon="6.30915">
        <ele>954</ele>
        <time>2021-12-22T21:01:10+01:00</time>
      </trkpt>
      <trkpt lat="46.79786" lon="6.30849">
        <ele>941</ele>
        <time>2021-12-22T21:01:15+01:00</time>
      </trkpt>
      <trkpt lat="46.79753" lon="6.30751">
        <ele>926</ele>
        <time>2021-12-22T21:01:20+01:00</time>
      </trkpt>
      <trkpt lat="46.79713" lon="6.30635">
        <ele>910</ele>
        <time>2021-12-22T21:01:25+01:00</time>
      </trkpt>
      <trkpt lat="46.79704" lon="6.30599">
        <ele>905</ele>
        <time>2021-12-22T21:01:30+01:00</time>
      </trkpt>
      <trkpt lat="46.79703" lon="6.30582">
        <ele>903</ele>
        <time>2021-12-22T21:01:35+01:00</time>
      </trkpt>
      <trkpt lat="46.79712" lon="6.30572">
        <ele>900</ele>
        <time>2021-12-22T21:01:40+01:00</time>
      </trkpt>
      <trkpt lat="46.79769" lon="6.30649">
        <ele>902</ele>
        <time>2021-12-22T21:01:45+01:00</time>
      </trkpt>
      <trkpt lat="46.79859" lon="6.30572">
        <ele>886</ele>
        <time>2021-12-22T21:01:50+01:00</time>
      </trkpt>
      <trkpt lat="46.79884" lon="6.30557">
        <ele>884</ele>
        <time>2021-12-22T21:01:55+01:00</time>
      </trkpt>
      <trkpt lat="46.79896" lon="6.30526">
        <ele>884</ele>
        <time>2021-12-22T21:02:00+01:00</time>
      </trkpt>
      <trkpt lat="46.79921" lon="6.30518">
        <ele>884</ele>
        <time>2021-12-22T21:02:05+01:00</time>
      </trkpt>
      <trkpt lat="46.79937" lon="6.30495">
        <ele>884</ele>
        <time>2021-12-22T21:02:10+01:00</time>
      </trkpt>
      <trkpt lat="46.79943" lon="6.30491">
        <ele>884</ele>
        <time>2021-12-22T21:02:15+01:00</time>
      </trkpt>
      <trkpt lat="46.79936" lon="6.3045">
        <ele>885</ele>
        <time>2021-12-22T21:02:20+01:00</time>
      </trkpt>
      <trkpt lat="46.79959" lon="6.3045">
        <ele>884</ele>
        <time>2021-12-22T21:02:25+01:00</time>
      </trkpt>
      <trkpt lat="46.80036" lon="6.30533">
        <ele>879</ele>
        <time>2021-12-22T21:02:30+01:00</time>
      </trkpt>
      <trkpt lat="46.80095" lon="6.30539">
        <ele>871</ele>
        <time>2021-12-22T21:02:35+01:00</time>
      </trkpt>
      <trkpt lat="46.80144" lon="6.30517">
        <ele>863</ele>
        <time>2021-12-22T21:02:40+01:00</time>
      </trkpt>
      <trkpt lat="46.80198" lon="6.30502">
        <ele>856</ele>
        <time>2021-12-22T21:02:45+01:00</time>
      </trkpt>
      <trkpt lat="46.80204" lon="6.305">
        <ele>855</ele>
        <time>2021-12-22T21:02:50+01:00</time>
      </trkpt>
      <trkpt lat="46.80242" lon="6.30516">
        <ele>854</ele>
        <time>2021-12-22T21:02:55+01:00</time>
      </trkpt>
      <trkpt lat="46.80265" lon="6.3053">
        <ele>857</ele>
        <time>2021-12-22T21:03:00+01:00</time>
      </trkpt>
      <trkpt lat="46.80347" lon="6.30597">
        <ele>861</ele>
        <time>2021-12-22T21:03:05+01:00</time>
      </trkpt>
      <trkpt lat="46.80349" lon="6.30668">
        <ele>867</ele>
        <time>2021-12-22T21:03:10+01:00</time>
      </trkpt>
      <trkpt lat="46.8035" lon="6.30686">
        <ele>869</ele>
        <time>2021-12-22T21:03:15+01:00</time>
      </trkpt>
      <trkpt lat="46.80379" lon="6.30731">
        <ele>871</ele>
        <time>2021-12-22T21:03:20+01:00</time>
      </trkpt>
      <trkpt lat="46.80414" lon="6.3077">
        <ele>870</ele>
        <time>2021-12-22T21:03:25+01:00</time>
      </trkpt>
      <trkpt lat="46.80441" lon="6.30801">
        <ele>870</ele>
        <time>2021-12-22T21:03:30+01:00</time>
      </trkpt>
      <trkpt lat="46.80456" lon="6.30825">
        <ele>870</ele>
        <time>2021-12-22T21:03:35+01:00</time>
      </trkpt>
      <trkpt lat="46.80537" lon="6.3083">
        <ele>866</ele>
        <time>2021-12-22T21:03:40+01:00</time>
      </trkpt>
      <trkpt lat="46.80654" lon="6.30867">
        <ele>858</ele>
        <time>2021-12-22T21:03:45+01:00</time>
      </trkpt>
      <trkpt lat="46.80683" lon="6.30834">
        <ele>853</ele>
        <time>2021-12-22T21:03:50+01:00</time>
      </trkpt>
      <trkpt lat="46.80764" lon="6.30955">
        <ele>853</ele>
        <time>2021-12-22T21:03:55+01:00</time>
      </trkpt>
      <trkpt lat="46.80779" lon="6.30949">
        <ele>851</ele>
        <time>2021-12-22T21:04:00+01:00</time>
      </trkpt>
      <trkpt lat="46.80782" lon="6.30973">
        <ele>852</ele>
        <time>2021-12-22T21:04:05+01:00</time>
      </trkpt>
      <trkpt lat="46.80831" lon="6.31057">
        <ele>852</ele>
        <time>2021-12-22T21:04:10+01:00</time>
      </trkpt>
      <trkpt lat="46.80851" lon="6.31086">
        <ele>852</ele>
        <time>2021-12-22T21:04:15+01:00</time>
      </trkpt>
      <trkpt lat="46.80871" lon="6.31083">
        <ele>850</ele>
        <time>2021-12-22T21:04:20+01:00</time>
      </trkpt>
      <trkpt lat="46.80971" lon="6.31209">
        <ele>850</ele>
        <time>2021-12-22T21:04:25+01:00</time>
      </trkpt>
      <trkpt lat="46.81055" lon="6.31299">
        <ele>851</ele>
        <time>2021-12-22T21:04:30+01:00</time>
      </trkpt>
      <trkpt lat="46.8113" lon="6.31424">
        <ele>851</ele>
        <time>2021-12-22T21:04:35+01:00</time>
      </trkpt>
      <trkpt lat="46.81299" lon="6.31588">
        <ele>852</ele>
        <time>2021-12-22T21:04:40+01:00</time>
      </trkpt>
      <trkpt lat="46.81295" lon="6.31618">
        <ele>854</ele>
        <time>2021-12-22T21:04:45+01:00</time>
      </trkpt>
      <trkpt lat="46.81307" lon="6.31631">
        <ele>854</ele>
        <time>2021-12-22T21:04:50+01:00</time>
      </trkpt>
      <trkpt lat="46.81349" lon="6.31663">
        <ele>855</ele>
        <time>2021-12-22T21:04:55+01:00</time>
      </trkpt>
      <trkpt lat="46.81377" lon="6.31705">
        <ele>857</ele>
        <time>2021-12-22T21:05:00+01:00</time>
      </trkpt>
      <trkpt lat="46.8141" lon="6.31768">
        <ele>858</ele>
        <time>2021-12-22T21:05:05+01:00</time>
      </trkpt>
      <trkpt lat="46.81406" lon="6.31801">
        <ele>858</ele>
        <time>2021-12-22T21:05:10+01:00</time>
      </trkpt>
      <trkpt lat="46.81359" lon="6.31842">
        <ele>859</ele>
        <time>2021-12-22T21:05:15+01:00</time>
      </trkpt>
      <trkpt lat="46.81341" lon="6.31879">
        <ele>859</ele>
        <time>2021-12-22T21:05:20+01:00</time>
      </trkpt>
      <trkpt lat="46.81338" lon="6.31897">
        <ele>859</ele>
        <time>2021-12-22T21:05:25+01:00</time>
      </trkpt>
      <trkpt lat="46.81303" lon="6.31909">
        <ele>862</ele>
        <time>2021-12-22T21:05:30+01:00</time>
      </trkpt>
      <trkpt lat="46.81255" lon="6.31894">
        <ele>875</ele>
        <time>2021-12-22T21:05:35+01:00</time>
      </trkpt>
      <trkpt lat="46.81224" lon="6.31912">
        <ele>878</ele>
        <time>2021-12-22T21:05:40+01:00</time>
      </trkpt>
      <trkpt lat="46.81206" lon="6.3194">
        <ele>879</ele>
        <time>2021-12-22T21:05:45+01:00</time>
      </trkpt>
      <trkpt lat="46.81175" lon="6.32103">
        <ele>878</ele>
        <time>2021-12-22T21:05:50+01:00</time>
      </trkpt>
      <trkpt lat="46.81098" lon="6.32113">
        <ele>889</ele>
        <time>2021-12-22T21:05:55+01:00</time>
      </trkpt>
      <trkpt lat="46.81061" lon="6.32177">
        <ele>878</ele>
        <time>2021-12-22T21:06:00+01:00</time>
      </trkpt>
      <trkpt lat="46.81083" lon="6.32197">
        <ele>879</ele>
        <time>2021-12-22T21:06:05+01:00</time>
      </trkpt>
    </trkseg>
  </trk>
</gpx>